Lancaster, Pennsylvania
Current Conditions -  °F | °C
As of 6:53 PM on Thursday 27 Nov 2014 (Local Time) from KLNS Reporting Station
Few Clouds Few Clouds  
Wind Chill: 27°   Ceiling: Unl
Heat Index: 32°   Visibility: 10mi
Dew Point: 27°   Wind: 5mph
Humidity: 82%   Direction: 270°W
Pressure: 30.09"   Gusts: NA
Location:  40.04°N, 76.3°W
Report Text: KLNS 272353Z 27004KT 10SM FEW070 00/M03 A3009 RMK AO2 SLP193 T00001028 10022 20000 53013
Loading
Personal Weather Stations






























Interactive Weather Map New forecast layout! Learn more

10-Day Weather Forecast

Advertisements
Track Severe Weather on mobile